Time;durP1;ratioP1;P1;durP2;ratioP2;P2;SDS_P1;SDS_P2;PMS_P1;PMS_P2;Temp;Humidity;BMP_temperature;BMP_pressure;BME280_temperature;BME280_humidity;BME280_pressure;Samples;Min_cycle;Max_cycle;Signal;HPM_P1;HPM_P2
2022/08/15 00:00:20;;;;;;;3.45;3.25;;;;;;;16.84;100.00;63738.88;4892082;29;20231;-77
2022/08/15 00:02:49;;;;;;;3.78;3.55;;;;;;;16.85;100.00;63744.56;4891820;29;20270;-76
2022/08/15 00:05:20;;;;;;;3.90;3.65;;;;;;;16.77;100.00;63731.09;4889136;29;20238;-77
2022/08/15 00:07:48;;;;;;;3.47;3.28;;;;;;;16.77;100.00;63731.09;4890117;29;20230;-77
2022/08/15 00:10:15;;;;;;;4.20;3.90;;;;;;;16.79;100.00;63733.69;4890890;29;20231;-77
2022/08/15 00:12:42;;;;;;;5.38;4.20;;;;;;;16.75;100.00;63731.59;4885879;29;20214;-77
2022/08/15 00:15:12;;;;;;;4.32;3.92;;;;;;;16.76;100.00;63730.56;4891543;29;20265;-77
2022/08/15 00:17:42;;;;;;;4.40;4.10;;;;;;;16.68;100.00;63719.69;4891640;29;20250;-77
2022/08/15 00:20:11;;;;;;;5.45;4.13;;;;;;;16.71;100.00;63725.38;4889844;29;20308;-76
2022/08/15 00:22:46;;;;;;;4.72;4.32;;;;;;;16.63;100.00;63722.19;4892214;29;20283;-76
2022/08/15 00:25:14;;;;;;;6.35;5.72;;;;;;;16.56;100.00;63712.34;4891404;29;20261;-75
2022/08/15 00:27:41;;;;;;;5.78;5.28;;;;;;;16.56;100.00;63707.19;4891214;29;20226;-78
2022/08/15 00:30:13;;;;;;;5.38;4.97;;;;;;;16.45;100.00;63695.72;4886325;29;20270;-76
2022/08/15 00:32:41;;;;;;;6.70;6.20;;;;;;;16.44;100.00;63697.25;4889759;29;20218;-76
2022/08/15 00:35:35;;;;;;;6.38;5.88;;;;;;;16.51;100.00;63702.00;4890614;29;20223;-76
2022/08/15 00:37:57;;;;;;;6.53;5.47;;;;;;;16.39;100.00;63689.50;4890318;29;20217;-76
2022/08/15 00:40:25;;;;;;;5.93;5.32;;;;;;;16.46;100.00;63693.69;4889084;29;20206;-77
2022/08/15 00:42:53;;;;;;;5.82;5.32;;;;;;;16.45;100.00;63698.28;4892213;29;20303;-78
2022/08/15 00:45:23;;;;;;;7.38;6.68;;;;;;;16.51;100.00;63704.56;4890197;29;20507;-76
2022/08/15 00:50:33;;;;;;;6.18;5.68;;;;;;;16.52;100.00;63705.06;4887859;29;20474;-78
2022/08/15 00:53:02;;;;;;;6.57;5.97;;;;;;;16.42;100.00;63694.66;4892501;29;20203;-77
2022/08/15 00:55:31;;;;;;;7.20;6.50;;;;;;;16.46;100.00;63696.78;4891185;29;20234;-77
2022/08/15 00:58:00;;;;;;;7.07;6.38;;;;;;;16.49;100.00;63701.97;4881763;29;20216;-77
2022/08/15 01:00:31;;;;;;;7.13;6.43;;;;;;;16.49;100.00;63705.06;4890868;29;20211;-76
2022/08/15 01:03:02;;;;;;;8.25;6.63;;;;;;;16.49;100.00;63699.91;4889525;29;20547;-77
2022/08/15 01:05:29;;;;;;;6.72;6.10;;;;;;;16.51;100.00;63704.56;4888805;29;20244;-77
2022/08/15 01:07:56;;;;;;;7.15;6.55;;;;;;;16.56;100.00;63709.25;4884821;29;20214;-76
2022/08/15 01:10:23;;;;;;;7.70;7.00;;;;;;;16.51;100.00;63704.56;4889949;29;20227;-77
2022/08/15 01:12:50;;;;;;;7.05;6.47;;;;;;;16.53;100.00;63708.69;4890059;29;20402;-77
2022/08/15 01:15:17;;;;;;;8.05;6.90;;;;;;;16.54;100.00;63709.72;4884239;29;20429;-77
2022/08/15 01:17:45;;;;;;;7.22;6.32;;;;;;;16.52;100.00;63705.06;4885553;29;20489;-77
2022/08/15 01:20:18;;;;;;;7.30;5.88;;;;;;;16.41;100.00;63693.63;4889879;29;20239;-76
2022/08/15 01:22:57;;;;;;;6.88;6.28;;;;;;;16.33;100.00;63682.72;4886400;29;20519;-78
2022/08/15 01:25:31;;;;;;;6.63;5.55;;;;;;;16.12;100.00;63661.91;4890203;29;20243;-78
2022/08/15 01:28:02;;;;;;;6.72;5.90;;;;;;;16.13;100.00;63667.59;4889566;29;20223;-77
2022/08/15 01:30:33;;;;;;;7.20;6.25;;;;;;;16.23;100.00;63670.28;4890338;29;20234;-79
2022/08/15 01:33:00;;;;;;;7.43;6.78;;;;;;;16.14;100.00;63664.00;4885188;29;20619;-77
2022/08/15 01:35:29;;;;;;;7.22;6.68;;;;;;;16.14;100.00;63668.63;4890906;29;20211;-77
2022/08/15 01:37:57;;;;;;;8.10;6.25;;;;;;;16.12;100.00;63663.97;4884363;29;20241;-77
2022/08/15 01:40:32;;;;;;;7.82;7.13;;;;;;;16.13;100.00;63668.09;4880648;29;20238;-77
2022/08/15 01:43:00;;;;;;;9.68;6.88;;;;;;;16.20;100.00;63672.81;4886108;29;20277;-77
2022/08/15 01:45:31;;;;;;;7.18;6.47;;;;;;;16.20;100.00;63672.31;4890758;29;20254;-78
2022/08/15 01:48:03;;;;;;;9.20;6.90;;;;;;;16.20;100.00;63672.31;4890234;29;20230;-78
2022/08/15 01:50:34;;;;;;;7.47;6.70;;;;;;;16.22;100.00;63674.38;4882917;29;20199;-77
2022/08/15 01:53:09;;;;;;;7.63;6.75;;;;;;;16.22;100.00;63673.84;4889461;29;20288;-76
2022/08/15 01:55:44;;;;;;;12.00;6.25;;;;;;;16.24;100.00;63675.94;4890493;29;20291;-79
2022/08/15 01:58:12;;;;;;;6.60;6.00;;;;;;;16.19;100.00;63671.25;4888727;29;20205;-78
2022/08/15 02:00:49;;;;;;;8.60;6.45;;;;;;;16.21;100.00;63670.75;4885759;29;20306;-76
2022/08/15 02:03:16;;;;;;;9.82;6.82;;;;;;;16.20;100.00;63669.72;4890006;29;20414;-76
2022/08/15 02:05:43;;;;;;;7.60;6.38;;;;;;;16.19;100.00;63671.25;4889161;29;20301;-77
2022/08/15 02:08:10;;;;;;;6.70;6.00;;;;;;;16.16;100.00;63666.09;4886200;29;20235;-76
2022/08/15 02:10:43;;;;;;;8.77;5.72;;;;;;;16.16;100.00;63665.56;4889488;29;20242;-77
2022/08/15 02:13:11;;;;;;;7.75;6.10;;;;;;;16.02;100.00;63653.56;4886919;29;20270;-78
2022/08/15 02:15:38;;;;;;;6.78;5.50;;;;;;;15.93;100.00;63644.19;4886578;29;20406;-76
2022/08/15 02:18:05;;;;;;;5.95;5.38;;;;;;;15.99;100.00;63650.44;4880980;29;20249;-77
2022/08/15 02:20:32;;;;;;;5.95;5.45;;;;;;;15.89;100.00;63643.13;4890077;29;20202;-76
2022/08/15 02:22:59;;;;;;;6.25;5.68;;;;;;;15.82;100.00;63628.16;4889936;29;20225;-77
2022/08/15 02:25:26;;;;;;;6.53;5.93;;;;;;;15.80;100.00;63631.22;4889421;29;20554;-76
2022/08/15 02:27:56;;;;;;;6.05;5.55;;;;;;;15.64;100.00;63612.00;4879516;29;20230;-77
2022/08/15 02:30:26;;;;;;;9.57;6.03;;;;;;;15.70;100.00;63615.16;4889709;29;20243;-77
2022/08/15 02:32:53;;;;;;;6.78;6.18;;;;;;;15.65;100.00;63615.59;4886949;29;20219;-77
2022/08/15 02:35:20;;;;;;;6.97;6.38;;;;;;;15.64;100.00;63617.16;4887379;29;20223;-77
2022/08/15 02:37:47;;;;;;;8.07;7.43;;;;;;;15.64;100.00;63617.16;4882000;29;20246;-77
2022/08/15 02:40:17;;;;;;;7.57;6.82;;;;;;;15.59;100.00;63606.81;4889331;29;20258;-77
2022/08/15 02:42:46;;;;;;;8.65;6.68;;;;;;;15.57;100.00;63606.78;4889510;29;20411;-77
2022/08/15 02:45:15;;;;;;;7.82;6.95;;;;;;;15.57;100.00;63607.31;4880854;29;20256;-76
2022/08/15 02:47:43;;;;;;;8.20;7.40;;;;;;;15.58;100.00;63607.81;4888511;29;20208;-78
2022/08/15 02:50:12;;;;;;;8.00;6.80;;;;;;;15.55;100.00;63602.16;4889161;29;20531;-77
2022/08/15 02:52:40;;;;;;;7.72;7.05;;;;;;;15.54;100.00;63604.19;4888950;29;20215;-76
2022/08/15 02:55:08;;;;;;;11.38;8.10;;;;;;;15.51;100.00;63600.56;4880524;29;20235;-77
2022/08/15 02:57:35;;;;;;;10.10;7.60;;;;;;;15.50;100.00;63600.03;4889551;29;20211;-76
2022/08/15 03:00:04;;;;;;;11.85;9.02;;;;;;;15.48;100.00;63594.88;4889638;29;20295;-76
2022/08/15 03:02:49;;;;;;;11.55;8.98;;;;;;;15.50;100.00;63594.38;4887362;29;20203;-76
2022/08/15 03:05:17;;;;;;;12.40;10.80;;;;;;;15.43;100.00;63589.69;4879103;29;20294;-77
2022/08/15 03:07:44;;;;;;;15.93;11.85;;;;;;;15.45;100.00;63591.72;4888529;29;20246;-77
2022/08/15 03:10:11;;;;;;;15.82;11.23;;;;;;;15.41;100.00;63590.66;4889200;29;20403;-76
2022/08/15 03:12:49;;;;;;;13.23;10.77;;;;;;;15.42;100.00;63589.16;4880555;29;20222;-77
2022/08/15 03:15:16;;;;;;;16.42;11.70;;;;;;;15.47;100.00;63593.81;4889814;29;20227;-77
2022/08/15 03:17:44;;;;;;;13.27;11.20;;;;;;;15.42;100.00;63583.50;4888026;29;20223;-78
2022/08/15 03:20:13;;;;;;;17.20;12.10;;;;;;;15.44;100.00;63591.22;4887323;29;20298;-77
2022/08/15 03:22:42;;;;;;;16.20;12.30;;;;;;;15.49;100.00;63595.91;4878475;29;20271;-76
2022/08/15 03:25:09;;;;;;;12.82;11.02;;;;;;;15.48;100.00;63594.88;4887814;29;20230;-77
2022/08/15 03:27:38;;;;;;;13.27;11.32;;;;;;;15.46;100.00;63595.34;4889988;29;20227;-76
2022/08/15 03:30:07;;;;;;;11.45;10.15;;;;;;;15.46;100.00;63592.78;4886603;29;20223;-78
2022/08/15 03:32:42;;;;;;;13.77;11.25;;;;;;;15.51;100.00;63600.56;4891791;29;20207;-76
2022/08/15 03:35:11;;;;;;;15.25;13.05;;;;;;;15.45;100.00;63589.69;4891643;29;20237;-77
2022/08/15 03:37:39;;;;;;;14.95;11.48;;;;;;;15.41;100.00;63590.66;4892055;29;20272;-76
2022/08/15 03:40:08;;;;;;;14.43;11.32;;;;;;;15.48;100.00;63595.38;4883318;29;20241;-77
2022/08/15 03:42:35;;;;;;;14.88;10.98;;;;;;;15.46;100.00;63601.00;4893756;29;20246;-77
2022/08/15 03:45:04;;;;;;;14.57;11.10;;;;;;;15.52;100.00;63599.53;4892450;29;20239;-78
2022/08/15 03:47:31;;;;;;;12.93;10.63;;;;;;;15.55;100.00;63607.28;4887235;29;20244;-77
2022/08/15 03:49:59;;;;;;;12.55;11.05;;;;;;;15.58;100.00;63608.34;4891241;29;20231;-77
2022/08/15 03:52:28;;;;;;;12.30;9.90;;;;;;;15.60;100.00;63607.84;4892391;29;20228;-77
2022/08/15 03:54:55;;;;;;;15.30;11.00;;;;;;;15.61;100.00;63614.03;4892655;29;20232;-76
2022/08/15 03:57:23;;;;;;;13.77;10.32;;;;;;;15.63;100.00;63613.53;4881860;29;20224;-76
2022/08/15 03:59:51;;;;;;;15.50;10.93;;;;;;;15.53;100.00;63602.63;4891222;29;20231;-78
2022/08/15 04:02:18;;;;;;;13.98;10.77;;;;;;;15.60;100.00;63607.34;4892495;29;20539;-77
2022/08/15 04:04:46;;;;;;;15.60;10.68;;;;;;;15.69;100.00;63619.78;4886891;29;20235;-77
2022/08/15 04:07:13;;;;;;;10.98;8.75;;;;;;;15.67;100.00;63617.69;4890386;29;20235;-76
2022/08/15 04:09:42;;;;;;;9.10;8.23;;;;;;;15.63;100.00;63610.97;4891885;29;20255;-77
2022/08/15 04:12:09;;;;;;;9.95;8.30;;;;;;;15.60;100.00;63607.34;4890755;29;20270;-78
2022/08/15 04:14:36;;;;;;;10.73;8.52;;;;;;;15.62;100.00;63612.50;4883440;29;20536;-78
2022/08/15 04:17:04;;;;;;;9.20;7.57;;;;;;;15.62;100.00;63609.41;4887763;29;20242;-76
2022/08/15 04:19:32;;;;;;;7.38;6.68;;;;;;;15.69;100.00;63616.69;4891569;29;20243;-77
2022/08/15 04:22:04;;;;;;;8.50;7.70;;;;;;;15.74;100.00;63621.88;4888404;29;20211;-77
2022/08/15 04:24:30;;;;;;;8.57;7.82;;;;;;;15.79;100.00;63629.66;4883743;29;20235;-76
2022/08/15 04:26:59;;;;;;;9.93;8.38;;;;;;;15.80;100.00;63628.66;4892091;29;20266;-78
2022/08/15 04:29:26;;;;;;;13.75;9.80;;;;;;;15.86;100.00;63636.91;4891740;29;20241;-78
2022/08/15 04:31:56;;;;;;;10.73;9.40;;;;;;;15.81;100.00;63624.56;4884524;29;20477;-77
2022/08/15 04:34:23;;;;;;;14.70;10.18;;;;;;;15.95;100.00;63648.84;4891268;29;20231;-77
2022/08/15 04:36:50;;;;;;;9.38;8.25;;;;;;;16.03;100.00;63655.13;4890958;29;20210;-78
2022/08/15 04:39:17;;;;;;;9.52;8.48;;;;;;;16.06;100.00;63655.16;4892151;29;20241;-79
2022/08/15 04:41:45;;;;;;;11.57;8.18;;;;;;;16.14;100.00;63666.56;4881806;29;20235;-78
2022/08/15 04:44:13;;;;;;;10.50;9.50;;;;;;;16.26;100.00;63678.00;4891754;29;20250;-77
2022/08/15 04:46:40;;;;;;;13.02;8.98;;;;;;;16.38;100.00;63688.44;4888286;29;20298;-77
2022/08/15 04:49:07;;;;;;;12.15;10.80;;;;;;;16.34;100.00;63684.28;4892386;29;20297;-78
2022/08/15 04:51:37;;;;;;;12.40;10.25;;;;;;;16.43;100.00;63696.22;4891859;29;20211;-78
2022/08/15 04:54:05;;;;;;;13.25;10.20;;;;;;;16.56;100.00;63707.19;4889857;29;20235;-78
2022/08/15 04:56:32;;;;;;;15.00;10.18;;;;;;;16.67;100.00;63718.63;4883851;29;20218;-78
2022/08/15 04:58:59;;;;;;;13.10;10.50;;;;;;;16.88;100.00;63742.53;4891473;29;20238;-78
2022/08/15 05:01:27;;;;;;;11.73;9.90;;;;;;;16.97;100.00;63752.44;4883068;29;20230;-78
2022/08/15 05:03:54;;;;;;;12.77;9.43;;;;;;;17.19;100.00;63772.75;4891222;29;20273;-78
2022/08/15 05:06:22;;;;;;;10.38;9.30;;;;;;;17.39;100.00;63795.63;4890145;29;20242;-77
2022/08/15 05:08:49;;;;;;;10.45;9.35;;;;;;;17.53;100.00;63812.28;4888895;29;20298;-77
2022/08/15 05:11:19;;;;;;;15.95;13.70;;;;;;;17.67;100.00;63826.84;4890840;29;20210;-79
2022/08/15 05:13:47;;;;;;;20.00;14.20;;;;;;;17.82;100.00;63840.44;4881513;29;20231;-78
2022/08/15 05:16:14;;;;;;;22.30;15.63;;;;;;;18.03;100.00;63859.72;4891061;29;20519;-79
2022/08/15 05:18:43;;;;;;;19.48;15.18;;;;;;;18.24;100.00;63884.16;4880978;29;20252;-78
2022/08/15 05:21:11;;;;;;;20.02;15.93;;;;;;;18.45;100.00;63899.88;4888692;29;20264;-77
2022/08/15 05:23:40;;;;;;;20.95;15.40;;;;;;;18.52;100.00;63915.41;4891121;29;20340;-78
2022/08/15 05:26:07;;;;;;;20.65;15.48;;;;;;;18.57;100.00;63915.47;4890861;29;20595;-77
2022/08/15 05:28:34;;;;;;;19.65;15.30;;;;;;;18.60;100.00;63918.59;4885431;29;20245;-77
2022/08/15 05:31:06;;;;;;;22.30;17.33;;;;;;;18.43;100.00;63903.47;4890008;29;20211;-76
2022/08/15 05:33:33;;;;;;;25.13;17.33;;;;;;;18.50;100.00;63910.75;4881211;29;20302;-76
2022/08/15 05:36:04;;;;;;;25.85;18.10;;;;;;;18.34;100.00;63894.56;4888263;29;20206;-76
2022/08/15 05:38:34;;;;;;;24.50;17.55;;;;;;;18.36;100.00;63894.09;4889228;29;20231;-78
2022/08/15 05:41:17;;;;;;;27.00;18.00;;;;;;;18.29;100.00;63886.78;4889209;29;20207;-77
2022/08/15 05:43:53;;;;;;;28.30;20.08;;;;;;;18.34;100.00;63894.56;4890264;29;20269;-77
2022/08/15 05:46:25;;;;;;;25.02;18.55;;;;;;;18.32;100.00;63894.56;4887675;29;20433;-78
2022/08/15 05:49:01;;;;;;;28.02;18.63;;;;;;;18.18;100.00;63877.41;4889366;29;20274;-79
2022/08/15 05:51:37;;;;;;;28.55;19.38;;;;;;;18.35;100.00;63898.22;4890519;29;20222;-77
2022/08/15 05:54:17;;;;;;;23.88;18.38;;;;;;;18.53;100.00;63913.91;4888793;29;20278;-76
2022/08/15 05:56:56;;;;;;;24.70;18.98;;;;;;;18.35;100.00;63895.09;4888957;29;20546;-77
2022/08/15 05:59:30;;;;;;;21.95;16.50;;;;;;;18.43;100.00;63903.97;4878976;29;20222;-77
2022/08/15 06:02:02;;;;;;;20.83;16.10;;;;;;;18.37;100.00;63899.78;4885723;29;20255;-77
2022/08/15 06:04:38;;;;;;;24.20;18.40;;;;;;;18.36;100.00;63896.16;4885883;29;20520;-79
2022/08/15 06:07:11;;;;;;;25.13;18.42;;;;;;;18.32;100.00;63889.41;4886650;29;20240;-76
2022/08/15 06:09:42;;;;;;;24.17;18.83;;;;;;;18.25;100.00;63885.22;4889024;29;20286;-77
2022/08/15 06:12:13;;;;;;;24.80;18.45;;;;;;;18.40;100.00;63892.59;4898382;29;20266;-77
2022/08/15 06:14:44;;;;;;;24.83;18.33;;;;;;;18.42;100.00;63897.78;4885770;29;20227;-77
2022/08/15 06:17:17;;;;;;;26.48;19.45;;;;;;;18.50;100.00;63913.34;4884588;29;20393;-77
2022/08/15 06:19:48;;;;;;;26.23;19.40;;;;;;;18.68;100.00;63929.00;4890881;29;20416;-77
2022/08/15 06:22:29;;;;;;;27.02;19.63;;;;;;;18.89;100.00;63951.41;4893445;29;20211;-77
2022/08/15 06:25:09;;;;;;;25.05;18.67;;;;;;;19.00;100.00;63964.94;4886982;29;20275;-78
2022/08/15 06:27:49;;;;;;;29.05;18.63;;;;;;;18.77;100.00;63935.78;4890126;29;20242;-78
2022/08/15 06:30:19;;;;;;;31.13;21.20;;;;;;;18.88;100.00;63947.28;4890517;29;20233;-78
2022/08/15 06:32:55;;;;;;;23.10;18.77;;;;;;;19.15;100.00;63975.94;4885937;29;20248;-75
2022/08/15 06:35:33;;;;;;;25.35;18.95;;;;;;;19.35;100.00;63999.38;4887637;29;20225;-76
2022/08/15 06:38:13;;;;;;;23.30;17.70;;;;;;;19.42;100.00;64009.28;4885701;29;20210;-77
2022/08/15 06:40:46;;;;;;;28.08;19.58;;;;;;;19.19;100.00;63982.69;4887024;29;20202;-77
2022/08/15 06:43:14;;;;;;;25.42;18.05;;;;;;;19.30;100.00;63991.06;4890126;29;20210;-77
2022/08/15 06:45:44;;;;;;;25.58;18.75;;;;;;;19.04;100.00;63967.03;4888493;29;20214;-77
2022/08/15 06:48:14;;;;;;;28.73;19.48;;;;;;;18.55;100.00;63918.53;4888985;29;20230;-79
2022/08/15 06:50:45;;;;;;;27.00;20.10;;;;;;;18.54;100.00;63909.25;4891253;29;20220;-77
2022/08/15 06:53:20;;;;;;;25.00;19.95;;;;;;;18.63;100.00;63929.47;4890394;29;20281;-77
2022/08/15 06:55:53;;;;;;;25.70;18.98;;;;;;;18.90;100.00;63951.91;4891211;29;20281;-77
2022/08/15 06:58:37;;;;;;;23.92;18.73;;;;;;;18.88;100.00;63947.28;4881499;29;20250;-78
2022/08/15 07:01:14;;;;;;;23.95;17.42;;;;;;;19.07;100.00;63969.66;4887267;29;20254;-81
2022/08/15 07:03:51;;;;;;;23.75;18.27;;;;;;;19.00;100.00;63965.44;4890419;29;20254;-77
2022/08/15 07:06:27;;;;;;;25.58;18.45;;;;;;;18.99;100.00;63959.25;4893249;29;20225;-81
2022/08/15 07:09:01;;;;;;;24.30;18.20;;;;;;;19.17;100.00;63977.50;4890873;29;20575;-77
2022/08/15 07:11:37;;;;;;;26.33;19.60;;;;;;;19.04;100.00;63964.47;4893712;29;20248;-80
2022/08/15 07:14:19;;;;;;;26.55;19.95;;;;;;;19.21;100.00;63987.34;4892011;29;20615;-78
2022/08/15 07:16:53;;;;;;;24.08;19.75;;;;;;;19.43;100.00;64005.13;4894947;29;20235;-78
2022/08/15 07:19:20;;;;;;;24.13;18.08;;;;;;;19.47;100.00;64013.97;4891690;29;20554;-78
2022/08/15 07:21:47;;;;;;;31.08;21.00;;;;;;;19.50;100.00;64017.59;4890772;29;20215;-78
2022/08/15 07:24:28;;;;;;;26.15;19.40;;;;;;;19.53;100.00;64015.56;4892908;29;20230;-78
2022/08/15 07:26:59;;;;;;;24.13;19.55;;;;;;;19.54;100.00;64016.63;4891042;29;20234;-78
2022/08/15 07:29:30;;;;;;;23.50;18.30;;;;;;;19.36;100.00;63997.34;4893237;29;20239;-77
2022/08/15 07:32:07;;;;;;;27.35;20.85;;;;;;;19.65;100.00;64030.16;4883371;29;20263;-78
2022/08/15 07:34:35;;;;;;;26.92;19.65;;;;;;;19.90;100.00;64053.63;4885935;29;20301;-80
2022/08/15 07:37:05;;;;;;;26.73;18.77;;;;;;;19.72;100.00;64034.88;4893039;29;20222;-78
2022/08/15 07:39:40;;;;;;;29.42;18.10;;;;;;;19.72;100.00;64039.50;4884468;29;20455;-79
2022/08/15 07:42:13;;;;;;;22.08;17.05;;;;;;;19.50;100.00;64017.09;4891465;29;20234;-78
2022/08/15 07:44:50;;;;;;;26.25;19.85;;;;;;;19.63;100.00;64028.06;4893310;29;20253;-79
2022/08/15 07:47:22;;;;;;;28.73;20.27;;;;;;;19.72;100.00;64039.50;4889701;29;20234;-77
2022/08/15 07:49:59;;;;;;;27.88;19.45;;;;;;;19.67;100.00;64031.72;4887468;29;20266;-76
2022/08/15 07:52:27;;;;;;;24.52;18.80;;;;;;;19.50;100.00;64011.91;4886103;29;20207;-77
2022/08/15 07:54:59;;;;;;;27.02;20.52;;;;;;;19.48;100.00;64012.94;4892793;29;20559;-80
2022/08/15 07:57:32;;;;;;;29.05;20.38;;;;;;;19.86;100.00;64051.53;4894151;29;20271;-78
2022/08/15 08:00:16;;;;;;;23.25;18.98;;;;;;;19.95;100.00;64063.53;4892363;29;20286;-77
2022/08/15 08:02:49;;;;;;;26.52;19.90;;;;;;;19.76;100.00;64039.03;4891632;29;20224;-78
2022/08/15 08:05:18;;;;;;;23.77;18.17;;;;;;;19.92;100.00;64060.38;4893825;29;20231;-79
2022/08/15 08:07:48;;;;;;;27.58;20.25;;;;;;;20.24;100.00;64091.22;4893102;29;20469;-78
2022/08/15 08:10:26;;;;;;;24.33;18.85;;;;;;;20.43;100.00;64113.63;4885979;29;20441;-79
2022/08/15 08:13:10;;;;;;;24.38;18.67;;;;;;;20.54;100.00;64123.03;4886658;29;20212;-79
2022/08/15 08:15:42;;;;;;;21.52;18.02;;;;;;;20.58;100.00;64124.09;4892523;29;20248;-80
2022/08/15 08:18:17;;;;;;;20.65;17.55;;;;;;;20.73;100.00;64137.16;4892323;29;20215;-79
2022/08/15 08:20:51;;;;;;;23.05;17.10;;;;;;;20.96;100.00;64166.38;4886586;29;20207;-80
2022/08/15 08:23:24;;;;;;;22.88;16.90;;;;;;;21.23;98.42;64194.56;4893756;29;20238;-79
2022/08/15 08:26:03;;;;;;;21.80;16.77;;;;;;;21.05;100.00;64172.66;4890797;29;20214;-78
2022/08/15 08:28:38;;;;;;;18.17;16.27;;;;;;;20.95;100.00;64165.31;4884298;29;20281;-79
2022/08/15 08:31:16;;;;;;;22.30;17.80;;;;;;;20.96;100.00;64161.19;4890256;29;20210;-78
2022/08/15 08:33:56;;;;;;;18.48;16.63;;;;;;;21.26;100.00;64202.38;4884116;29;20394;-78
2022/08/15 08:36:31;;;;;;;20.25;16.92;;;;;;;21.32;99.87;64203.97;4892913;29;20232;-79
2022/08/15 08:39:09;;;;;;;19.20;15.32;;;;;;;21.18;97.25;64191.41;4892720;29;20286;-79
2022/08/15 08:41:46;;;;;;;18.50;15.52;;;;;;;21.14;98.12;64184.66;4883423;29;20242;-79
2022/08/15 08:44:24;;;;;;;19.05;15.50;;;;;;;21.43;97.50;64212.84;4884687;29;20233;-80
2022/08/15 08:47:11;;;;;;;21.67;15.18;;;;;;;21.59;92.39;64232.16;4891980;29;20214;-79
2022/08/15 08:49:48;;;;;;;17.30;13.45;;;;;;;21.46;92.13;64218.06;4890836;29;20289;-79
2022/08/15 08:52:26;;;;;;;18.88;16.30;;;;;;;21.59;95.54;64231.66;4893444;29;20254;-78
2022/08/15 08:54:59;;;;;;;18.05;14.10;;;;;;;21.97;93.41;64271.38;4890077;29;20226;-78
2022/08/15 08:57:36;;;;;;;23.17;17.25;;;;;;;22.11;94.35;64285.47;4886282;29;20215;-78
2022/08/15 09:00:08;;;;;;;17.40;15.48;;;;;;;21.84;94.79;64254.66;4891692;29;20230;-80
2022/08/15 09:02:41;;;;;;;16.83;13.23;;;;;;;21.78;96.04;64246.84;4893207;29;20206;-77
2022/08/15 09:05:16;;;;;;;16.25;14.13;;;;;;;21.68;96.19;64249.34;4887808;29;20231;-78
2022/08/15 09:07:49;;;;;;;19.17;15.77;;;;;;;21.24;98.24;64195.63;4887924;29;20281;-78
2022/08/15 09:10:24;;;;;;;19.95;16.83;;;;;;;21.74;98.58;64247.84;4887486;29;20413;-77
2022/08/15 09:15:42;;;;;;;16.08;12.48;;;;;;;21.97;87.38;64273.97;4887273;29;20503;-78
2022/08/15 09:18:14;;;;;;;16.88;14.70;;;;;;;21.98;89.37;64274.50;4886599;29;20238;-77
2022/08/15 09:20:42;;;;;;;18.02;15.63;;;;;;;22.27;90.55;64304.78;4891499;29;20218;-78
2022/08/15 09:23:13;;;;;;;17.13;13.63;;;;;;;22.18;84.72;64292.78;4880403;29;20581;-78
2022/08/15 09:25:49;;;;;;;17.23;13.90;;;;;;;22.13;90.02;64290.69;4891480;29;20254;-78
2022/08/15 09:28:23;;;;;;;16.73;14.10;;;;;;;21.98;86.22;64277.63;4881839;29;20246;-77
2022/08/15 09:30:52;;;;;;;19.25;14.75;;;;;;;21.93;91.31;64267.19;4891601;29;20211;-78
2022/08/15 09:33:45;;;;;;;19.17;15.27;;;;;;;22.13;93.45;64285.50;4882963;29;20269;-80
2022/08/15 09:36:40;;;;;;;17.48;14.95;;;;;;;22.50;86.33;64331.44;4889144;29;20209;-80
2022/08/15 09:39:25;;;;;;;15.95;14.00;;;;;;;22.37;87.73;64315.25;4887493;29;20266;-79
2022/08/15 09:42:04;;;;;;;14.45;12.95;;;;;;;22.62;86.76;64336.22;4892007;29;20234;-77
2022/08/15 09:44:54;;;;;;;17.55;14.50;;;;;;;22.60;86.40;64336.72;4891886;29;20590;-78
2022/08/15 09:47:59;;;;;;;15.75;13.15;;;;;;;22.89;81.87;64361.84;4889400;29;20301;-78
2022/08/15 09:50:40;;;;;;;14.27;12.30;;;;;;;22.87;81.03;64368.06;4892685;29;20262;-78
2022/08/15 09:53:18;;;;;;;19.75;13.57;;;;;;;23.18;79.49;64397.38;4892654;29;20202;-79
2022/08/15 09:55:48;;;;;;;14.20;12.70;;;;;;;23.42;77.54;64422.50;4882547;29;20213;-81
2022/08/15 09:58:20;;;;;;;14.40;12.95;;;;;;;23.04;78.99;64382.72;4891976;29;20210;-78
2022/08/15 10:01:05;;;;;;;12.45;11.18;;;;;;;23.10;79.09;64388.47;4892069;29;20210;-78
2022/08/15 10:03:56;;;;;;;14.05;12.57;;;;;;;23.23;81.10;64405.19;4890772;29;20226;-79
2022/08/15 10:06:26;;;;;;;14.00;12.60;;;;;;;23.47;76.36;64430.31;4891499;29;20210;-79
2022/08/15 10:09:31;;;;;;;13.32;11.93;;;;;;;23.57;76.32;64438.19;4882747;29;20313;-78
2022/08/15 10:12:22;;;;;;;14.88;13.38;;;;;;;23.70;77.86;64451.78;4872607;29;20212;-77
2022/08/15 10:15:02;;;;;;;16.15;12.80;;;;;;;23.61;75.74;64444.44;4892693;29;20237;-78
2022/08/15 10:17:45;;;;;;;14.98;12.70;;;;;;;23.89;73.48;64471.69;4886461;29;20259;-79
2022/08/15 10:20:57;;;;;;;14.55;12.98;;;;;;;23.84;73.30;64466.44;4884549;29;20386;-78
2022/08/15 10:23:31;;;;;;;15.32;13.48;;;;;;;23.70;76.14;64457.00;4866028;29;20230;-78
2022/08/15 10:26:24;;;;;;;15.65;13.90;;;;;;;23.77;74.56;64461.72;4891549;29;20218;-78
2022/08/15 10:29:22;;;;;;;15.60;13.55;;;;;;;23.90;77.05;64472.72;4886076;29;20239;-78
2022/08/15 10:31:53;;;;;;;17.02;14.93;;;;;;;23.82;78.46;64466.41;4889101;29;20207;-77
2022/08/15 10:34:35;;;;;;;15.32;12.98;;;;;;;23.80;77.36;64461.72;4889635;29;20464;-78
2022/08/15 10:37:22;;;;;;;16.80;13.35;;;;;;;23.80;79.61;64461.72;4890650;29;20491;-77
2022/08/15 10:40:34;;;;;;;15.27;13.43;;;;;;;24.05;74.45;64490.53;4883944;29;20482;-78
2022/08/15 10:43:22;;;;;;;14.57;13.07;;;;;;;24.33;69.77;64521.91;4887842;29;20451;-81
2022/08/15 10:45:59;;;;;;;11.77;10.55;;;;;;;24.42;68.56;64529.25;4892673;29;20259;-77
2022/08/15 10:48:40;;;;;;;13.35;11.55;;;;;;;24.65;67.31;64553.34;4890958;29;20242;-77
2022/08/15 10:51:21;;;;;;;12.65;11.35;;;;;;;24.26;69.55;64506.78;4895312;29;20222;-77
2022/08/15 10:54:00;;;;;;;13.50;12.13;;;;;;;23.96;72.08;64483.69;4894390;29;20275;-80
2022/08/15 10:56:42;;;;;;;13.63;11.15;;;;;;;24.23;67.54;64506.75;4894934;29;20243;-77
2022/08/15 10:59:13;;;;;;;12.88;11.45;;;;;;;24.22;69.42;64510.38;4893352;29;20408;-78
2022/08/15 11:01:43;;;;;;;12.18;10.95;;;;;;;24.24;70.21;64504.66;4884605;29;20209;-77
2022/08/15 11:04:25;;;;;;;15.93;10.70;;;;;;;24.27;69.81;64510.41;4889032;29;20229;-78
2022/08/15 11:06:54;;;;;;;12.40;11.02;;;;;;;24.10;69.69;64490.53;4894093;29;20576;-80
2022/08/15 11:09:23;;;;;;;13.13;11.77;;;;;;;24.33;70.74;64519.84;4881662;29;20636;-76
2022/08/15 11:11:54;;;;;;;11.70;10.60;;;;;;;24.49;70.45;64533.97;4889662;29;20265;-79
2022/08/15 11:14:27;;;;;;;11.75;10.55;;;;;;;24.60;68.45;64542.34;4887151;29;20551;-79
2022/08/15 11:16:55;;;;;;;12.05;10.27;;;;;;;24.94;62.92;64581.13;4895063;29;20214;-78
2022/08/15 11:19:28;;;;;;;10.68;9.68;;;;;;;24.88;61.40;64574.31;4894868;29;20239;-79
2022/08/15 11:21:59;;;;;;;10.57;9.60;;;;;;;25.13;61.75;64602.59;4894469;29;20207;-79
2022/08/15 11:24:30;;;;;;;11.55;10.40;;;;;;;25.38;61.34;64628.78;4883021;29;20238;-80
2022/08/15 11:27:14;;;;;;;11.38;10.27;;;;;;;25.50;61.41;64639.28;4896162;29;20211;-77
2022/08/15 11:29:41;;;;;;;10.65;9.65;;;;;;;25.22;60.79;64609.38;4883741;29;20297;-79
2022/08/15 11:32:12;;;;;;;11.52;10.35;;;;;;;25.20;64.80;64607.28;4895588;29;20234;-78
2022/08/15 11:34:44;;;;;;;11.75;10.55;;;;;;;25.15;63.30;64599.97;4893458;29;20249;-77
2022/08/15 11:37:16;;;;;;;11.38;10.10;;;;;;;25.48;58.83;64637.19;4894709;29;20242;-77
2022/08/15 11:39:46;;;;;;;10.27;9.25;;;;;;;25.43;59.25;64634.03;4893538;29;20231;-78
2022/08/15 11:42:18;;;;;;;10.30;9.30;;;;;;;25.44;59.43;64632.97;4894230;29;20282;-79
2022/08/15 11:44:57;;;;;;;10.35;9.38;;;;;;;25.29;59.62;64619.84;4895824;29;20253;-78
2022/08/15 11:47:26;;;;;;;10.68;9.77;;;;;;;24.92;59.61;64584.22;4895036;29;20230;-78